createdAt,value
2023-04-17T00:00:52.628Z,100.00
2023-04-17T00:03:21.431Z,100.00
2023-04-17T00:05:49.830Z,100.00
2023-04-17T00:08:19.304Z,100.00
2023-04-17T00:11:00.213Z,100.00
2023-04-17T00:13:35.092Z,100.00
2023-04-17T00:16:03.351Z,100.00
2023-04-17T00:18:31.972Z,100.00
2023-04-17T00:21:00.747Z,100.00
2023-04-17T00:23:28.865Z,100.00
2023-04-17T00:25:57.050Z,100.00
2023-04-17T00:28:26.533Z,100.00
2023-04-17T00:30:54.661Z,100.00
2023-04-17T00:33:24.674Z,100.00
2023-04-17T00:35:52.660Z,100.00
2023-04-17T00:38:21.052Z,100.00
2023-04-17T00:40:51.698Z,100.00
2023-04-17T00:43:19.855Z,100.00
2023-04-17T00:45:48.298Z,100.00
2023-04-17T00:48:16.958Z,100.00
2023-04-17T00:50:45.574Z,100.00
2023-04-17T00:53:14.925Z,100.00
2023-04-17T00:55:43.941Z,100.00
2023-04-17T00:58:12.122Z,100.00
2023-04-17T01:00:40.406Z,100.00
2023-04-17T01:03:08.868Z,100.00
2023-04-17T01:05:38.648Z,100.00
2023-04-17T01:08:06.763Z,100.00
2023-04-17T01:10:34.926Z,100.00
2023-04-17T01:13:04.269Z,100.00
2023-04-17T01:15:32.953Z,100.00
2023-04-17T01:18:01.204Z,100.00
2023-04-17T01:20:32.512Z,100.00
2023-04-17T01:23:01.035Z,100.00
2023-04-17T01:25:29.570Z,100.00
2023-04-17T01:27:58.070Z,100.00
2023-04-17T01:30:28.701Z,100.00
2023-04-17T01:33:17.106Z,100.00
2023-04-17T01:35:45.367Z,100.00
2023-04-17T01:38:13.444Z,100.00
2023-04-17T01:40:42.966Z,100.00
2023-04-17T01:43:11.333Z,100.00
2023-04-17T01:45:39.426Z,100.00
2023-04-17T01:48:07.566Z,100.00
2023-04-17T01:50:35.761Z,100.00
2023-04-17T01:53:03.861Z,100.00
2023-04-17T01:55:32.078Z,100.00
2023-04-17T01:58:00.311Z,100.00
2023-04-17T02:00:28.616Z,100.00
2023-04-17T02:02:57.163Z,100.00
2023-04-17T02:05:25.441Z,100.00
2023-04-17T02:07:53.628Z,100.00
2023-04-17T02:10:21.736Z,100.00
2023-04-17T02:12:49.890Z,100.00
2023-04-17T02:15:18.782Z,100.00
2023-04-17T02:17:47.197Z,100.00
2023-04-17T02:20:15.612Z,100.00
2023-04-17T02:22:43.816Z,100.00
2023-04-17T02:25:11.956Z,100.00
2023-04-17T02:27:40.214Z,100.00
2023-04-17T02:30:09.251Z,100.00
2023-04-17T02:32:37.484Z,100.00
2023-04-17T02:35:07.536Z,100.00
2023-04-17T02:37:37.380Z,100.00
2023-04-17T02:40:07.407Z,100.00
2023-04-17T02:42:35.619Z,100.00
2023-04-17T02:45:04.664Z,100.00
2023-04-17T02:47:33.841Z,100.00
2023-04-17T02:50:04.087Z,100.00
2023-04-17T02:52:36.441Z,100.00
2023-04-17T02:55:05.839Z,100.00
2023-04-17T02:57:34.395Z,100.00
2023-04-17T03:00:05.783Z,100.00
2023-04-17T03:02:35.092Z,100.00
2023-04-17T03:05:04.389Z,100.00
2023-04-17T03:07:33.170Z,100.00
2023-04-17T03:10:01.328Z,100.00
2023-04-17T03:12:32.209Z,100.00
2023-04-17T03:15:01.438Z,100.00
2023-04-17T03:17:30.583Z,100.00
2023-04-17T03:19:59.843Z,100.00
2023-04-17T03:22:27.993Z,100.00
2023-04-17T03:24:56.141Z,100.00
2023-04-17T03:27:26.657Z,100.00
2023-04-17T03:29:56.369Z,100.00
2023-04-17T03:32:25.620Z,100.00
2023-04-17T03:34:53.769Z,100.00
2023-04-17T03:37:22.723Z,100.00
2023-04-17T03:39:51.004Z,100.00
2023-04-17T03:42:19.369Z,100.00
2023-04-17T03:44:47.581Z,100.00
2023-04-17T03:47:15.785Z,100.00
2023-04-17T03:49:44.138Z,100.00
2023-04-17T03:52:13.260Z,100.00
2023-04-17T03:54:42.688Z,100.00
2023-04-17T03:57:12.935Z,100.00
2023-04-17T03:59:41.109Z,100.00
2023-04-17T04:02:09.380Z,100.00
2023-04-17T04:04:38.062Z,100.00
2023-04-17T04:07:10.680Z,100.00
2023-04-17T04:09:39.091Z,100.00
2023-04-17T04:12:09.036Z,100.00
2023-04-17T04:14:42.024Z,100.00
2023-04-17T04:17:11.168Z,100.00
2023-04-17T04:19:39.648Z,100.00
2023-04-17T04:22:08.070Z,100.00
2023-04-17T04:24:42.792Z,100.00
2023-04-17T04:27:18.171Z,100.00
2023-04-17T04:29:49.110Z,100.00
2023-04-17T04:32:20.717Z,100.00
2023-04-17T04:34:48.985Z,100.00
2023-04-17T04:37:18.169Z,100.00
2023-04-17T04:39:48.000Z,100.00
2023-04-17T04:42:22.589Z,100.00
2023-04-17T04:45:05.213Z,100.00
2023-04-17T04:47:34.008Z,100.00
2023-04-17T04:50:02.467Z,100.00
2023-04-17T04:52:32.410Z,100.00
2023-04-17T04:55:02.771Z,100.00
2023-04-17T04:57:31.555Z,100.00
2023-04-17T05:00:02.430Z,100.00
2023-04-17T05:02:36.207Z,100.00
2023-04-17T05:05:08.701Z,100.00
2023-04-17T05:07:38.104Z,100.00
2023-04-17T05:10:08.510Z,100.00
2023-04-17T05:12:41.770Z,100.00
2023-04-17T05:15:11.521Z,100.00
2023-04-17T05:17:39.610Z,100.00
2023-04-17T05:20:09.710Z,100.00
2023-04-17T05:22:45.404Z,100.00
2023-04-17T05:25:14.162Z,100.00
2023-04-17T05:27:42.781Z,100.00
2023-04-17T05:30:13.189Z,100.00
2023-04-17T05:32:42.106Z,100.00
2023-04-17T05:35:38.151Z,100.00
2023-04-17T05:38:08.112Z,100.00
2023-04-17T05:40:38.086Z,100.00
2023-04-17T05:43:10.278Z,100.00
2023-04-17T05:45:38.980Z,100.00
2023-04-17T05:48:16.262Z,100.00
2023-04-17T05:50:44.740Z,100.00
2023-04-17T05:53:13.009Z,100.00
2023-04-17T05:55:48.387Z,100.00
2023-04-17T06:01:08.155Z,100.00
2023-04-17T06:03:37.880Z,100.00
2023-04-17T06:06:20.112Z,100.00
2023-04-17T06:08:55.143Z,100.00
2023-04-17T06:11:24.562Z,100.00
2023-04-17T06:13:55.209Z,100.00
2023-04-17T06:16:26.712Z,100.00
2023-04-17T06:18:55.006Z,100.00
2023-04-17T06:21:23.137Z,100.00
2023-04-17T06:23:52.705Z,100.00
2023-04-17T06:26:21.430Z,100.00
2023-04-17T06:28:53.130Z,100.00
2023-04-17T06:31:21.402Z,100.00
2023-04-17T06:33:51.001Z,100.00
2023-04-17T06:36:21.039Z,100.00
2023-04-17T06:38:57.146Z,100.00
2023-04-17T06:41:25.192Z,100.00
2023-04-17T06:44:02.372Z,100.00
2023-04-17T06:46:45.032Z,100.00
2023-04-17T06:49:14.321Z,100.00
2023-04-17T06:51:45.973Z,100.00
2023-04-17T06:54:14.316Z,100.00
2023-04-17T06:56:42.646Z,100.00
2023-04-17T06:59:11.221Z,100.00
2023-04-17T07:01:40.577Z,100.00
2023-04-17T07:04:10.209Z,100.00
2023-04-17T07:06:40.102Z,100.00
2023-04-17T07:09:08.295Z,100.00
2023-04-17T07:11:37.507Z,100.00
2023-04-17T07:14:10.960Z,100.00
2023-04-17T07:16:41.203Z,100.00
2023-04-17T07:19:09.450Z,100.00
2023-04-17T07:21:38.146Z,100.00
2023-04-17T07:24:11.250Z,100.00
2023-04-17T07:26:40.621Z,100.00
2023-04-17T07:29:09.425Z,100.00
2023-04-17T07:31:38.676Z,100.00
2023-04-17T07:34:06.865Z,100.00
2023-04-17T07:36:37.422Z,100.00
2023-04-17T07:39:10.792Z,100.00
2023-04-17T07:41:41.186Z,100.00
2023-04-17T07:44:11.387Z,100.00
2023-04-17T07:46:41.656Z,100.00
2023-04-17T07:49:12.056Z,100.00
2023-04-17T07:51:43.224Z,100.00
2023-04-17T07:54:16.248Z,100.00
2023-04-17T07:56:49.834Z,100.00
2023-04-17T07:59:19.146Z,100.00
2023-04-17T08:01:47.272Z,100.00
2023-04-17T08:04:17.114Z,100.00
2023-04-17T08:06:45.580Z,100.00
2023-04-17T08:09:13.873Z,100.00
2023-04-17T08:11:56.447Z,100.00
2023-04-17T08:14:26.197Z,100.00
2023-04-17T08:16:56.148Z,100.00
2023-04-17T08:19:25.008Z,100.00
2023-04-17T08:21:56.630Z,100.00
2023-04-17T08:24:25.419Z,100.00
2023-04-17T08:26:58.052Z,100.00
2023-04-17T08:29:32.996Z,100.00
2023-04-17T08:32:42.749Z,100.00
2023-04-17T08:35:11.654Z,100.00
2023-04-17T08:37:42.550Z,100.00
2023-04-17T08:40:13.557Z,100.00
2023-04-17T08:42:42.599Z,100.00
2023-04-17T08:45:13.380Z,100.00
2023-04-17T08:47:42.834Z,100.00
2023-04-17T08:50:16.554Z,100.00
2023-04-17T08:52:50.380Z,100.00
2023-04-17T08:55:25.002Z,100.00
2023-04-17T08:58:06.822Z,100.00
2023-04-17T09:00:41.409Z,100.00
2023-04-17T09:03:13.609Z,100.00
2023-04-17T09:05:46.663Z,100.00
2023-04-17T09:08:24.330Z,100.00
2023-04-17T09:10:55.370Z,100.00
2023-04-17T09:13:25.824Z,100.00
2023-04-17T09:16:11.128Z,100.00
2023-04-17T09:18:40.091Z,100.00
2023-04-17T09:21:08.455Z,100.00
2023-04-17T09:23:55.538Z,100.00
2023-04-17T09:26:26.296Z,100.00
2023-04-17T09:29:04.165Z,100.00
2023-04-17T09:31:34.746Z,100.00
2023-04-17T09:34:04.550Z,100.00
2023-04-17T09:36:34.238Z,100.00
2023-04-17T09:39:04.423Z,100.00
2023-04-17T09:41:36.353Z,100.00
2023-04-17T09:44:07.972Z,100.00
2023-04-17T09:46:48.137Z,100.00
2023-04-17T09:49:39.948Z,100.00
2023-04-17T09:52:08.419Z,100.00
2023-04-17T09:54:39.401Z,100.00
2023-04-17T09:57:08.640Z,100.00
2023-04-17T09:59:41.925Z,100.00
2023-04-17T10:02:11.788Z,100.00
2023-04-17T10:04:41.702Z,100.00
2023-04-17T10:07:10.505Z,100.00
2023-04-17T10:09:41.977Z,100.00
2023-04-17T10:12:17.410Z,100.00
2023-04-17T10:14:48.389Z,100.00
2023-04-17T10:17:34.613Z,100.00
2023-04-17T10:20:15.569Z,100.00
2023-04-17T10:22:49.419Z,100.00
2023-04-17T10:25:17.938Z,100.00
2023-04-17T10:27:48.618Z,100.00
2023-04-17T10:30:17.800Z,98.93
2023-04-17T10:32:46.788Z,100.00
2023-04-17T10:35:18.152Z,98.66
2023-04-17T10:37:50.736Z,95.11
2023-04-17T10:40:23.158Z,84.55
2023-04-17T10:43:22.426Z,80.33
2023-04-17T10:46:01.303Z,76.42
2023-04-17T10:48:38.083Z,75.53
2023-04-17T10:51:24.294Z,56.55
2023-04-17T10:53:56.296Z,52.84
2023-04-17T10:56:40.565Z,49.05
2023-04-17T10:59:10.123Z,48.41
2023-04-17T11:01:55.991Z,49.97
2023-04-17T11:04:31.497Z,49.19
2023-04-17T11:07:00.158Z,48.02
2023-04-17T11:09:29.721Z,49.21
2023-04-17T11:12:03.503Z,46.49
2023-04-17T11:14:32.778Z,47.89
2023-04-17T11:17:01.993Z,46.48
2023-04-17T11:19:32.228Z,45.90
2023-04-17T11:22:02.858Z,45.62
2023-04-17T11:24:32.141Z,45.46
2023-04-17T11:27:00.914Z,45.59
2023-04-17T11:29:29.141Z,47.06
2023-04-17T11:31:57.589Z,45.88
2023-04-17T11:34:27.565Z,44.11
2023-04-17T11:36:57.483Z,41.53
2023-04-17T11:39:28.272Z,42.93
2023-04-17T11:41:58.122Z,43.85
2023-04-17T11:44:26.279Z,43.26
2023-04-17T11:46:58.834Z,42.48
2023-04-17T11:49:31.500Z,42.52
2023-04-17T11:52:01.226Z,40.94
2023-04-17T11:54:37.385Z,38.76
2023-04-17T11:57:14.509Z,39.64
2023-04-17T11:59:42.770Z,40.37
2023-04-17T12:02:12.646Z,39.77
2023-04-17T12:04:41.213Z,40.73
2023-04-17T12:07:09.588Z,39.94
2023-04-17T12:09:38.555Z,40.29
2023-04-17T12:12:07.438Z,39.51
2023-04-17T12:14:36.129Z,40.19
2023-04-17T12:17:04.524Z,40.26
2023-04-17T12:19:41.610Z,39.97
2023-04-17T12:22:09.792Z,40.10
2023-04-17T12:24:38.058Z,40.26
2023-04-17T12:27:06.348Z,40.46
2023-04-17T12:29:43.940Z,38.30
2023-04-17T12:32:13.283Z,37.11
2023-04-17T12:34:41.590Z,36.52
2023-04-17T12:37:11.206Z,36.30
2023-04-17T12:39:39.306Z,37.58
2023-04-17T12:42:07.576Z,36.83
2023-04-17T12:44:36.104Z,38.96
2023-04-17T12:47:04.247Z,37.98
2023-04-17T12:49:32.832Z,37.37
2023-04-17T12:52:03.241Z,36.78
2023-04-17T12:54:33.145Z,36.94
2023-04-17T12:57:02.351Z,36.69
2023-04-17T12:59:31.362Z,36.94
2023-04-17T13:01:59.620Z,36.82
2023-04-17T13:04:28.460Z,36.07
2023-04-17T13:06:57.297Z,36.73
2023-04-17T13:09:25.378Z,34.63
2023-04-17T13:11:53.515Z,35.31
2023-04-17T13:14:22.140Z,36.16
2023-04-17T13:16:51.035Z,34.80
2023-04-17T13:19:20.082Z,35.12
2023-04-17T13:21:49.492Z,36.28
2023-04-17T13:24:17.742Z,37.38
2023-04-17T13:26:45.874Z,37.77
2023-04-17T13:29:16.431Z,38.86
2023-04-17T13:31:46.134Z,38.28
2023-04-17T13:34:14.300Z,38.07
2023-04-17T13:36:44.877Z,36.90
2023-04-17T13:39:14.047Z,36.79
2023-04-17T13:41:47.495Z,37.52
2023-04-17T13:44:19.506Z,38.36
2023-04-17T13:46:47.772Z,39.72
2023-04-17T13:49:16.196Z,38.68
2023-04-17T13:51:44.343Z,38.38
2023-04-17T13:54:12.499Z,38.32
2023-04-17T13:56:40.660Z,38.89
2023-04-17T13:59:09.890Z,39.61
2023-04-17T14:01:38.614Z,40.96
2023-04-17T14:04:08.219Z,42.98
2023-04-17T14:06:37.930Z,43.92
2023-04-17T14:09:06.382Z,42.71
2023-04-17T14:11:34.426Z,42.64
2023-04-17T14:14:02.570Z,43.33
2023-04-17T14:16:30.825Z,42.61
2023-04-17T14:19:06.437Z,41.63
2023-04-17T14:21:40.632Z,41.43
2023-04-17T14:24:09.445Z,41.47
2023-04-17T14:26:38.363Z,42.30
2023-04-17T14:29:06.614Z,42.28
2023-04-17T14:31:34.798Z,42.10
2023-04-17T14:34:03.021Z,42.30
2023-04-17T14:36:31.288Z,42.27
2023-04-17T14:38:59.471Z,42.11
2023-04-17T14:41:30.072Z,41.04
2023-04-17T14:43:58.608Z,41.86
2023-04-17T14:46:26.790Z,41.29
2023-04-17T14:48:56.393Z,41.35
2023-04-17T14:51:24.750Z,41.71
2023-04-17T14:53:53.352Z,42.19
2023-04-17T14:56:21.959Z,41.39
2023-04-17T14:58:50.580Z,41.24
2023-04-17T15:01:20.034Z,41.32
2023-04-17T15:03:49.046Z,41.38
2023-04-17T15:06:18.879Z,42.40
2023-04-17T15:08:47.107Z,41.46
2023-04-17T15:11:15.996Z,42.23
2023-04-17T15:13:44.351Z,42.24
2023-04-17T15:16:12.532Z,42.50
2023-04-17T15:18:40.633Z,41.71
2023-04-17T15:21:08.761Z,41.69
2023-04-17T15:23:37.515Z,42.51
2023-04-17T15:26:05.745Z,43.04
2023-04-17T15:28:34.102Z,43.44
2023-04-17T15:31:02.609Z,43.51
2023-04-17T15:33:31.174Z,44.08
2023-04-17T15:36:00.962Z,44.13
2023-04-17T15:38:29.230Z,44.51
2023-04-17T15:40:57.977Z,44.25
2023-04-17T15:43:26.314Z,44.66
2023-04-17T15:45:56.084Z,45.06
2023-04-17T15:48:24.674Z,45.48
2023-04-17T15:50:52.896Z,45.86
2023-04-17T15:53:21.163Z,45.32
2023-04-17T15:55:49.341Z,45.53
2023-04-17T15:58:17.585Z,46.26
2023-04-17T16:00:45.826Z,47.12
2023-04-17T16:03:14.915Z,48.06
2023-04-17T16:05:43.239Z,49.09
2023-04-17T16:08:11.334Z,49.37
2023-04-17T16:10:39.945Z,49.39
2023-04-17T16:13:08.344Z,50.05
2023-04-17T16:15:36.984Z,51.54
2023-04-17T16:18:05.581Z,52.62
2023-04-17T16:20:34.061Z,53.99
2023-04-17T16:23:02.212Z,54.30
2023-04-17T16:25:31.171Z,53.94
2023-04-17T16:27:59.979Z,54.06
2023-04-17T16:30:28.522Z,53.84
2023-04-17T16:32:56.821Z,54.06
2023-04-17T16:35:25.104Z,53.68
2023-04-17T16:37:55.460Z,53.36
2023-04-17T16:40:23.648Z,53.17
2023-04-17T16:42:51.793Z,53.22
2023-04-17T16:45:21.137Z,54.95
2023-04-17T16:47:49.416Z,53.38
2023-04-17T16:50:17.641Z,56.98
2023-04-17T16:52:51.312Z,59.14
2023-04-17T16:55:19.660Z,60.74
2023-04-17T16:57:48.328Z,61.13
2023-04-17T17:00:16.740Z,61.71
2023-04-17T17:02:45.069Z,61.54
2023-04-17T17:05:15.834Z,62.94
2023-04-17T17:07:44.229Z,64.52
2023-04-17T17:10:12.635Z,65.67
2023-04-17T17:12:40.988Z,67.92
2023-04-17T17:15:09.457Z,69.01
2023-04-17T17:17:38.335Z,70.49
2023-04-17T17:20:07.649Z,71.62
2023-04-17T17:22:36.100Z,73.24
2023-04-17T17:25:09.228Z,76.39
2023-04-17T17:27:37.869Z,78.22
2023-04-17T17:30:07.035Z,79.91
2023-04-17T17:32:35.920Z,79.50
2023-04-17T17:35:04.547Z,80.30
2023-04-17T17:37:32.800Z,80.57
2023-04-17T17:40:03.260Z,81.97
2023-04-17T17:42:31.435Z,82.67
2023-04-17T17:44:59.548Z,82.88
2023-04-17T17:47:27.670Z,83.60
2023-04-17T17:49:55.941Z,83.85
2023-04-17T17:52:24.585Z,85.24
2023-04-17T17:54:55.295Z,86.40
2023-04-17T17:57:23.550Z,86.59
2023-04-17T17:59:51.752Z,85.96
2023-04-17T18:02:20.602Z,85.28
2023-04-17T18:04:49.209Z,83.87
2023-04-17T18:07:17.662Z,83.92
2023-04-17T18:09:48.885Z,84.17
2023-04-17T18:12:18.535Z,84.03
2023-04-17T18:14:46.642Z,83.97
2023-04-17T18:17:14.744Z,83.15
2023-04-17T18:19:43.469Z,83.06
2023-04-17T18:22:11.744Z,82.60
2023-04-17T18:24:40.786Z,82.10
2023-04-17T18:27:08.986Z,81.25
2023-04-17T18:29:37.051Z,81.11
2023-04-17T18:32:05.228Z,80.39
2023-04-17T18:34:33.375Z,80.34
2023-04-17T18:37:01.612Z,80.58
2023-04-17T18:39:30.987Z,81.33
2023-04-17T18:41:59.845Z,81.54
2023-04-17T18:44:29.132Z,80.83
2023-04-17T18:46:58.071Z,79.95
2023-04-17T18:49:27.657Z,79.66
2023-04-17T18:51:55.804Z,79.07
2023-04-17T18:54:25.950Z,78.45
2023-04-17T18:56:54.297Z,78.31
2023-04-17T18:59:22.460Z,77.77
2023-04-17T19:01:50.750Z,77.18
2023-04-17T19:04:19.396Z,77.29
2023-04-17T19:06:48.222Z,76.80
2023-04-17T19:09:16.236Z,77.79
2023-04-17T19:11:44.449Z,77.28
2023-04-17T19:14:12.881Z,76.48
2023-04-17T19:16:41.310Z,75.49
2023-04-17T19:19:11.367Z,75.08
2023-04-17T19:21:39.749Z,75.31
2023-04-17T19:24:08.652Z,74.48
2023-04-17T19:26:37.330Z,73.99
2023-04-17T19:29:05.542Z,74.05
2023-04-17T19:31:34.143Z,74.80
2023-04-17T19:34:02.309Z,75.41
2023-04-17T19:36:30.521Z,75.66
2023-04-17T19:39:00.039Z,74.53
2023-04-17T19:41:28.301Z,73.98
2023-04-17T19:43:56.389Z,74.26
2023-04-17T19:46:25.594Z,73.21
2023-04-17T19:48:53.717Z,74.55
2023-04-17T19:51:23.891Z,73.28
2023-04-17T19:53:53.594Z,73.10
2023-04-17T19:56:21.783Z,72.34
2023-04-17T19:58:49.943Z,72.36
2023-04-17T20:01:18.088Z,71.89
2023-04-17T20:03:46.592Z,72.50
2023-04-17T20:06:14.832Z,72.97
2023-04-17T20:08:42.937Z,72.79
2023-04-17T20:11:12.375Z,71.96
2023-04-17T20:13:41.425Z,72.80
2023-04-17T20:16:09.599Z,74.42
2023-04-17T20:18:38.148Z,76.91
2023-04-17T20:21:06.531Z,77.97
2023-04-17T20:23:34.897Z,78.99
2023-04-17T20:26:05.427Z,80.34
2023-04-17T20:28:34.203Z,79.41
2023-04-17T20:31:03.812Z,80.32
2023-04-17T20:33:32.035Z,82.02
2023-04-17T20:36:00.230Z,81.07
2023-04-17T20:38:28.601Z,81.99
2023-04-17T20:40:56.701Z,82.35
2023-04-17T20:43:24.938Z,80.57
2023-04-17T20:45:53.120Z,81.68
2023-04-17T20:48:21.555Z,81.92
2023-04-17T20:50:49.914Z,83.48
2023-04-17T20:53:18.326Z,83.75
2023-04-17T20:55:47.178Z,83.65
2023-04-17T20:58:15.613Z,84.73
2023-04-17T21:00:54.477Z,84.68
2023-04-17T21:03:31.840Z,86.03
2023-04-17T21:06:00.519Z,84.57
2023-04-17T21:08:29.381Z,83.54
2023-04-17T21:10:57.570Z,83.34
2023-04-17T21:13:26.085Z,84.14
2023-04-17T21:15:54.232Z,83.89
2023-04-17T21:18:22.358Z,85.74
2023-04-17T21:20:51.094Z,87.48
2023-04-17T21:23:19.108Z,87.64
2023-04-17T21:25:47.533Z,86.84
2023-04-17T21:28:16.266Z,87.53
2023-04-17T21:30:44.431Z,88.18
2023-04-17T21:33:12.878Z,87.82
2023-04-17T21:35:40.945Z,88.39
2023-04-17T21:38:09.363Z,88.51
2023-04-17T21:40:37.658Z,89.00
2023-04-17T21:43:06.312Z,89.85
2023-04-17T21:45:35.302Z,90.52
2023-04-17T21:48:04.259Z,90.01
2023-04-17T21:50:33.048Z,89.25
2023-04-17T21:53:02.369Z,89.02
2023-04-17T21:55:30.534Z,88.66
2023-04-17T21:57:59.509Z,89.03
2023-04-17T22:00:27.670Z,88.58
2023-04-17T22:02:56.481Z,88.63
2023-04-17T22:05:24.865Z,88.87
2023-04-17T22:07:55.300Z,89.64
2023-04-17T22:10:24.333Z,89.49
2023-04-17T22:12:53.909Z,89.35
2023-04-17T22:15:23.313Z,89.10
2023-04-17T22:17:51.570Z,89.46
2023-04-17T22:20:20.112Z,89.91
2023-04-17T22:22:48.243Z,91.14
2023-04-17T22:25:17.186Z,92.03
2023-04-17T22:27:46.175Z,92.09
2023-04-17T22:30:14.281Z,90.80
2023-04-17T22:32:42.649Z,91.46
2023-04-17T22:35:11.875Z,91.98
2023-04-17T22:37:40.455Z,92.29
2023-04-17T22:40:09.030Z,93.44
2023-04-17T22:42:37.980Z,92.86
2023-04-17T22:45:06.489Z,95.18
2023-04-17T22:47:35.308Z,95.53
2023-04-17T22:50:04.219Z,97.26
2023-04-17T22:52:33.117Z,97.44
2023-04-17T22:55:01.751Z,97.63
2023-04-17T22:57:30.187Z,98.05
2023-04-17T22:59:58.272Z,99.19
2023-04-17T23:02:26.527Z,97.96
2023-04-17T23:04:54.810Z,96.12
2023-04-17T23:07:23.120Z,94.32
2023-04-17T23:09:51.296Z,96.07
2023-04-17T23:12:19.746Z,96.90
2023-04-17T23:14:48.558Z,96.99
2023-04-17T23:17:16.637Z,97.26
2023-04-17T23:19:44.774Z,96.11
2023-04-17T23:22:12.964Z,96.49
2023-04-17T23:24:41.261Z,97.18
2023-04-17T23:27:09.386Z,97.04
2023-04-17T23:29:37.560Z,97.71
2023-04-17T23:32:07.335Z,97.42
2023-04-17T23:34:35.787Z,97.07
2023-04-17T23:37:03.932Z,97.83
2023-04-17T23:39:32.066Z,98.00
2023-04-17T23:42:05.830Z,98.62
2023-04-17T23:44:37.097Z,96.93
2023-04-17T23:47:05.398Z,96.41
2023-04-17T23:49:33.992Z,99.97
2023-04-17T23:52:02.446Z,100.00
2023-04-17T23:54:31.017Z,100.00
2023-04-17T23:56:59.241Z,100.00
2023-04-17T23:59:27.416Z,100.00
